This is the latest recevied weather packets stored in our database for station/object W4VCO. If no packets are shown the sender has not sent any weather packets the latest 10 day(s).
| Time | Temp. | Humidity | Pressure | Rain* | Wind** | Luminosity | Snow |
|---|---|---|---|---|---|---|---|
| 1777219246 | 28.89° C | 55% | 1010.6 hPa | 0 mm | - | - | - |
| 1777218345 | 27.78° C | 59% | 1010.4 hPa | 0 mm | - | - | - |
| 1777215946 | 26.67° C | 65% | 1010.9 hPa | 0 mm | - | - | - |
| 1777215048 | 26.11° C | 68% | 1010.7 hPa | 0 mm | - | - | - |
| 1777212946 | 25° C | 73% | 1011 hPa | 0 mm | - | - | - |
| 1777212649 | 25° C | 75% | 1011 hPa | 0 mm | - | - | - |
| 1777211152 | 23.33° C | 81% | 1011 hPa | 0 mm | - | - | - |
| 1777209949 | 23.33° C | 83% | 1011 hPa | 0 mm | - | - | - |
| 1777208147 | 21.67° C | 90% | 1011 hPa | 0 mm | - | - | - |
| 1777207550 | 21.11° C | 92% | 1011 hPa | 0 mm | - | - | - |
| 1777207250 | 21.11° C | 93% | 1011 hPa | 0 mm | - | - | - |
| 1777206950 | 21.11° C | 94% | 1011 hPa | 0 mm | - | - | - |
| 1777205748 | 20° C | 95% | 1010.9 hPa | 0 mm | - | - | - |
| 1777202448 | 18.33° C | 95% | 1010.2 hPa | 0 mm | - | - | - |
| 1777200951 | 17.78° C | 93% | 1010.2 hPa | 0 mm | - | - | - |
| 1777197350 | 17.78° C | 93% | 1009.5 hPa | 0 mm | - | - | - |
| 1777192551 | 18.89° C | 90% | 1009.3 hPa | 0 mm | - | - | - |
| 1777191049 | 19.44° C | 90% | 1009.1 hPa | 0 mm | - | - | - |
| 1777187136 | 20° C | 88% | 1009.1 hPa | 0 mm | - | - | - |
| 1777185639 | 20.56° C | 87% | 1009.3 hPa | 0 mm | - | - | - |
| 1777183549 | 21.11° C | 85% | 1009.4 hPa | 0 mm | - | - | - |
| 1777183250 | 21.11° C | 85% | 1009.5 hPa | 0 mm | - | - | - |
| 1777180849 | 21.67° C | 85% | 1010 hPa | 0 mm | - | - | - |
| 1777180551 | 21.11° C | 85% | 1010.1 hPa | 0 mm | - | - | - |
| 1777179349 | 21.11° C | 85% | 1009.9 hPa | 0 mm | - | - | - |
* Rain latest hour (hover to see other rain measurements)
** Current wind speed in m/s (hover to see current wind gust speed)